Time,TemperatureF,DewpointF,PressureIn,WindDirection,WindDirectionDegrees,WindSpeedMPH,WindSpeedGustMPH,Humidity,HourlyPrecipIn,Conditions,Clouds,dailyrainin,SoftwareType,DateUTC
2013-01-13 00:06:00,73.1,66.0,30.12,ENE,63,0.0,6.0,78,0.00,,,0.00,weatherlink.com 1.10,2013-01-13 05:06:00,
2013-01-13 00:21:00,73.0,65.0,30.11,East,94,1.0,4.0,77,0.00,,,0.00,weatherlink.com 1.10,2013-01-13 05:21:00,
2013-01-13 00:36:00,73.1,66.0,30.11,ENE,65,3.0,5.0,77,0.00,,,0.00,weatherlink.com 1.10,2013-01-13 05:36:00,
2013-01-13 00:51:00,73.1,66.0,30.11,ENE,68,1.0,5.0,77,0.00,,,0.00,weatherlink.com 1.10,2013-01-13 05:51:00,
2013-01-13 01:06:00,73.3,67.0,30.11,NE,44,1.0,7.0,80,0.00,,,0.00,weatherlink.com 1.10,2013-01-13 06:06:00,
2013-01-13 01:21:00,73.2,67.0,30.11,ENE,67,1.0,5.0,80,0.00,,,0.00,weatherlink.com 1.10,2013-01-13 06:21:00,
2013-01-13 01:36:00,73.1,67.0,30.11,NE,53,3.0,10.0,80,0.00,,,0.00,weatherlink.com 1.10,2013-01-13 06:36:00,
2013-01-13 01:51:00,73.0,67.0,30.11,NE,40,2.0,5.0,80,0.00,,,0.00,weatherlink.com 1.10,2013-01-13 06:51:00,
2013-01-13 02:06:00,73.0,67.0,30.11,ENE,71,4.0,5.0,80,0.00,,,0.00,weatherlink.com 1.10,2013-01-13 07:06:00,
2013-01-13 02:21:00,73.0,67.0,30.11,East,86,1.0,4.0,80,0.00,,,0.00,weatherlink.com 1.10,2013-01-13 07:21:00,
2013-01-13 02:36:00,73.0,66.0,30.11,NE,54,4.0,6.0,78,0.00,,,0.00,weatherlink.com 1.10,2013-01-13 07:36:00,
2013-01-13 02:52:00,73.2,66.0,30.10,ENE,65,6.0,6.0,79,0.00,,,0.00,weatherlink.com 1.10,2013-01-13 07:52:00,
2013-01-13 03:07:00,73.4,67.0,30.09,ENE,72,4.0,8.0,80,0.00,,,0.00,weatherlink.com 1.10,2013-01-13 08:07:00,
2013-01-13 03:22:00,73.3,67.0,30.09,ENE,63,3.0,7.0,80,0.00,,,0.00,weatherlink.com 1.10,2013-01-13 08:22:00,
2013-01-13 03:37:00,73.3,66.0,30.09,ENE,75,3.0,6.0,78,0.00,,,0.00,weatherlink.com 1.10,2013-01-13 08:37:00,
2013-01-13 03:52:00,73.3,66.0,30.09,NE,44,3.0,8.0,78,0.00,,,0.00,weatherlink.com 1.10,2013-01-13 08:52:00,
2013-01-13 04:07:00,73.2,66.0,30.09,NE,56,1.0,7.0,79,0.00,,,0.00,weatherlink.com 1.10,2013-01-13 09:07:00,
2013-01-13 04:22:00,73.1,66.0,30.09,ENE,64,2.0,7.0,79,0.00,,,0.00,weatherlink.com 1.10,2013-01-13 09:22:00,
2013-01-13 04:37:00,73.6,66.0,30.09,East,81,2.0,7.0,78,0.00,,,0.00,weatherlink.com 1.10,2013-01-13 09:37:00,
2013-01-13 04:52:00,73.7,66.0,30.09,East,97,2.0,6.0,77,0.00,,,0.00,weatherlink.com 1.10,2013-01-13 09:52:00,
2013-01-13 05:07:00,73.8,65.0,30.09,NE,46,2.0,9.0,75,0.00,,,0.00,weatherlink.com 1.10,2013-01-13 10:07:00,
2013-01-13 05:22:00,73.4,65.0,30.09,NE,37,1.0,6.0,76,0.00,,,0.00,weatherlink.com 1.10,2013-01-13 10:22:00,
2013-01-13 05:37:00,73.0,65.0,30.10,NE,36,0.0,6.0,76,0.00,,,0.00,weatherlink.com 1.10,2013-01-13 10:37:00,
2013-01-13 05:52:00,72.7,65.0,30.10,NE,46,0.0,3.0,76,0.00,,,0.00,weatherlink.com 1.10,2013-01-13 10:52:00,
2013-01-13 06:07:00,72.8,65.0,30.10,ENE,68,1.0,5.0,76,0.00,,,0.00,weatherlink.com 1.10,2013-01-13 11:07:00,
2013-01-13 06:22:00,72.8,64.0,30.09,NE,45,0.0,6.0,74,0.00,,,0.00,weatherlink.com 1.10,2013-01-13 11:22:00,
2013-01-13 06:37:00,73.0,65.0,30.10,ENE,70,3.0,5.0,77,0.00,,,0.00,weatherlink.com 1.10,2013-01-13 11:37:00,
2013-01-13 06:52:00,73.0,66.0,30.10,ENE,72,1.0,7.0,78,0.00,,,0.00,weatherlink.com 1.10,2013-01-13 11:52:00,
2013-01-13 07:07:00,72.9,66.0,30.10,ENE,68,3.0,6.0,79,0.00,,,0.00,weatherlink.com 1.10,2013-01-13 12:07:00,
2013-01-13 07:22:00,72.9,66.0,30.10,East,86,3.0,6.0,79,0.00,,,0.00,weatherlink.com 1.10,2013-01-13 12:22:00,
2013-01-13 07:37:00,73.1,66.0,30.10,NE,42,1.0,7.0,79,0.00,,,0.00,weatherlink.com 1.10,2013-01-13 12:37:00,
2013-01-13 07:52:00,73.6,67.0,30.11,ENE,63,2.0,5.0,80,0.00,,,0.00,weatherlink.com 1.10,2013-01-13 12:52:00,
2013-01-13 08:07:00,74.2,67.0,30.10,NNE,22,0.0,7.0,79,0.00,,,0.00,weatherlink.com 1.10,2013-01-13 13:07:00,
2013-01-13 08:22:00,75.2,68.0,30.11,ENE,63,2.0,8.0,77,0.00,,,0.00,weatherlink.com 1.10,2013-01-13 13:22:00,
2013-01-13 08:37:00,75.4,68.0,30.11,East,84,3.0,7.0,77,0.00,,,0.00,weatherlink.com 1.10,2013-01-13 13:37:00,
2013-01-13 08:52:00,76.7,69.0,30.11,NE,53,4.0,6.0,76,0.00,,,0.00,weatherlink.com 1.10,2013-01-13 13:52:00,
2013-01-13 09:07:00,76.2,68.0,30.11,NE,34,1.0,6.0,76,0.00,,,0.00,weatherlink.com 1.10,2013-01-13 14:07:00,
2013-01-13 09:22:00,76.8,68.0,30.12,NNE,16,1.0,8.0,74,0.00,,,0.00,weatherlink.com 1.10,2013-01-13 14:22:00,
2013-01-13 09:37:00,78.0,68.0,30.12,NNE,16,3.0,5.0,71,0.00,,,0.00,weatherlink.com 1.10,2013-01-13 14:37:00,
2013-01-13 09:52:00,77.4,68.0,30.13,NE,41,2.0,6.0,73,0.00,,,0.00,weatherlink.com 1.10,2013-01-13 14:52:00,
2013-01-13 10:07:00,77.9,69.0,30.13,NE,46,2.0,6.0,73,0.00,,,0.00,weatherlink.com 1.10,2013-01-13 15:07:00,
2013-01-13 10:22:00,79.2,69.0,30.12,NE,40,3.0,6.0,71,0.00,,,0.00,weatherlink.com 1.10,2013-01-13 15:22:00,
2013-01-13 10:37:00,79.1,69.0,30.12,NNE,32,2.0,7.0,70,0.00,,,0.00,weatherlink.com 1.10,2013-01-13 15:37:00,
2013-01-13 10:52:00,80.1,69.0,30.13,NE,47,2.0,6.0,69,0.00,,,0.00,weatherlink.com 1.10,2013-01-13 15:52:00,
2013-01-13 11:07:00,80.8,69.0,30.12,NE,56,3.0,7.0,67,0.00,,,0.00,weatherlink.com 1.10,2013-01-13 16:07:00,
2013-01-13 11:22:00,80.5,69.0,30.13,NNE,27,0.0,4.0,69,0.00,,,0.00,weatherlink.com 1.10,2013-01-13 16:22:00,
2013-01-13 11:37:00,80.8,69.0,30.13,ENE,58,1.0,6.0,67,0.00,,,0.00,weatherlink.com 1.10,2013-01-13 16:37:00,
2013-01-13 11:52:00,79.9,69.0,30.13,ENE,58,4.0,6.0,70,0.00,,,0.00,weatherlink.com 1.10,2013-01-13 16:52:00,
2013-01-13 12:07:00,80.4,69.0,30.13,NE,56,2.0,6.0,68,0.00,,,0.00,weatherlink.com 1.10,2013-01-13 17:07:00,
2013-01-13 12:22:00,81.0,69.0,30.13,NNE,23,2.0,4.0,68,0.00,,,0.00,weatherlink.com 1.10,2013-01-13 17:22:00,
2013-01-13 12:37:00,80.5,69.0,30.12,East,81,1.0,4.0,68,0.00,,,0.00,weatherlink.com 1.10,2013-01-13 17:37:00,
2013-01-13 12:52:00,81.2,69.0,30.12,NE,49,1.0,7.0,66,0.00,,,0.00,weatherlink.com 1.10,2013-01-13 17:52:00,
2013-01-13 13:08:00,80.8,69.0,30.12,ENE,70,2.0,6.0,68,0.00,,,0.00,weatherlink.com 1.10,2013-01-13 18:08:00,
2013-01-13 13:23:00,80.8,70.0,30.12,ENE,71,4.0,5.0,69,0.00,,,0.00,weatherlink.com 1.10,2013-01-13 18:23:00,
2013-01-13 13:38:00,80.6,69.0,30.11,NE,39,3.0,4.0,67,0.00,,,0.00,weatherlink.com 1.10,2013-01-13 18:38:00,
2013-01-13 13:53:00,79.8,69.0,30.11,ENE,70,1.0,5.0,69,0.00,,,0.00,weatherlink.com 1.10,2013-01-13 18:53:00,
2013-01-13 14:08:00,79.0,68.0,30.11,ENE,65,2.0,5.0,69,0.00,,,0.00,weatherlink.com 1.10,2013-01-13 19:08:00,
2013-01-13 14:23:00,77.9,68.0,30.11,East,85,0.0,5.0,71,0.00,,,0.00,weatherlink.com 1.10,2013-01-13 19:23:00,
2013-01-13 14:38:00,77.6,68.0,30.11,ENE,58,0.0,5.0,72,0.00,,,0.00,weatherlink.com 1.10,2013-01-13 19:38:00,
2013-01-13 14:53:00,77.2,68.0,30.11,ENE,77,2.0,3.0,73,0.00,,,0.00,weatherlink.com 1.10,2013-01-13 19:53:00,
2013-01-13 15:08:00,76.8,68.0,30.11,ENE,70,0.0,2.0,75,0.00,,,0.00,weatherlink.com 1.10,2013-01-13 20:08:00,
2013-01-13 15:23:00,77.1,68.0,30.11,ENE,65,0.0,5.0,73,0.00,,,0.00,weatherlink.com 1.10,2013-01-13 20:23:00,
2013-01-13 15:38:00,76.4,68.0,30.11,NE,46,1.0,2.0,74,0.00,,,0.00,weatherlink.com 1.10,2013-01-13 20:38:00,
2013-01-13 15:53:00,76.5,68.0,30.12,ENE,68,0.0,3.0,75,0.00,,,0.00,weatherlink.com 1.10,2013-01-13 20:53:00,
2013-01-13 16:08:00,77.0,69.0,30.12,East,99,0.0,6.0,75,0.00,,,0.00,weatherlink.com 1.10,2013-01-13 21:08:00,
2013-01-13 16:23:00,76.8,67.0,30.13,NE,37,0.0,4.0,71,0.00,,,0.00,weatherlink.com 1.10,2013-01-13 21:23:00,
2013-01-13 16:38:00,76.3,67.0,30.13,ENE,67,3.0,5.0,72,0.00,,,0.00,weatherlink.com 1.10,2013-01-13 21:38:00,
2013-01-13 16:53:00,75.8,67.0,30.13,SE,131,0.0,4.0,73,0.00,,,0.00,weatherlink.com 1.10,2013-01-13 21:53:00,
2013-01-13 17:08:00,75.5,66.0,30.13,ENE,65,2.0,4.0,72,0.00,,,0.00,weatherlink.com 1.10,2013-01-13 22:08:00,
2013-01-13 17:23:00,75.2,66.0,30.13,ENE,57,3.0,4.0,73,0.00,,,0.00,weatherlink.com 1.10,2013-01-13 22:23:00,
2013-01-13 17:38:00,75.1,66.0,30.13,ENE,64,0.0,4.0,73,0.00,,,0.00,weatherlink.com 1.10,2013-01-13 22:38:00,
2013-01-13 17:53:00,74.7,65.0,30.14,East,85,0.0,2.0,72,0.00,,,0.00,weatherlink.com 1.10,2013-01-13 22:53:00,
2013-01-13 18:08:00,74.3,67.0,30.14,NE,46,1.0,6.0,79,0.00,,,0.00,weatherlink.com 1.10,2013-01-13 23:08:00,
2013-01-13 18:23:00,74.3,67.0,30.14,ENE,70,3.0,7.0,79,0.00,,,0.00,weatherlink.com 1.10,2013-01-13 23:23:00,
2013-01-13 18:38:00,74.1,67.0,30.13,NE,54,1.0,5.0,79,0.00,,,0.00,weatherlink.com 1.10,2013-01-13 23:38:00,
2013-01-13 18:53:00,74.0,68.0,30.14,NE,50,3.0,6.0,81,0.00,,,0.00,weatherlink.com 1.10,2013-01-13 23:53:00,
2013-01-13 19:08:00,73.7,68.0,30.14,WSW,256,2.0,7.0,81,0.00,,,0.00,weatherlink.com 1.10,2013-01-14 00:08:00,
2013-01-13 19:23:00,73.7,68.0,30.14,NE,54,6.0,6.0,81,0.00,,,0.00,weatherlink.com 1.10,2013-01-14 00:23:00,
2013-01-13 19:38:00,73.8,68.0,30.14,ENE,63,3.0,4.0,81,0.00,,,0.00,weatherlink.com 1.10,2013-01-14 00:38:00,
2013-01-13 19:53:00,73.9,68.0,30.14,ENE,61,2.0,6.0,81,0.00,,,0.00,weatherlink.com 1.10,2013-01-14 00:53:00,
2013-01-13 20:08:00,73.8,68.0,30.13,NE,43,2.0,4.0,83,0.00,,,0.00,weatherlink.com 1.10,2013-01-14 01:08:00,
2013-01-13 20:23:00,73.3,68.0,30.13,NE,39,4.0,7.0,83,0.00,,,0.00,weatherlink.com 1.10,2013-01-14 01:23:00,
2013-01-13 20:38:00,73.2,68.0,30.12,East,82,0.0,6.0,83,0.00,,,0.00,weatherlink.com 1.10,2013-01-14 01:38:00,
2013-01-13 20:53:00,73.1,67.0,30.12,NE,54,2.0,7.0,80,0.00,,,0.00,weatherlink.com 1.10,2013-01-14 01:53:00,
2013-01-13 21:08:00,72.9,66.0,30.12,ENE,60,2.0,5.0,80,0.00,,,0.00,weatherlink.com 1.10,2013-01-14 02:08:00,
2013-01-13 21:23:00,73.0,66.0,30.12,NE,50,3.0,5.0,78,0.00,,,0.00,weatherlink.com 1.10,2013-01-14 02:23:00,
2013-01-13 21:38:00,73.1,66.0,30.12,ENE,68,3.0,7.0,77,0.00,,,0.00,weatherlink.com 1.10,2013-01-14 02:38:00,
2013-01-13 21:53:00,73.1,66.0,30.12,ENE,59,0.0,5.0,78,0.00,,,0.00,weatherlink.com 1.10,2013-01-14 02:53:00,
2013-01-13 22:08:00,73.1,66.0,30.12,NE,40,1.0,5.0,77,0.00,,,0.00,weatherlink.com 1.10,2013-01-14 03:08:00,
2013-01-13 22:23:00,73.0,63.0,30.12,SE,132,2.0,5.0,72,0.00,,,0.00,weatherlink.com 1.10,2013-01-14 03:23:00,
2013-01-13 22:38:00,73.1,64.0,30.13,NE,45,0.0,4.0,72,0.00,,,0.00,weatherlink.com 1.10,2013-01-14 03:38:00,
2013-01-13 22:53:00,73.2,64.0,30.13,NE,49,1.0,6.0,74,0.00,,,0.00,weatherlink.com 1.10,2013-01-14 03:53:00,
2013-01-13 23:08:00,73.2,64.0,30.13,NE,40,2.0,6.0,74,0.00,,,0.00,weatherlink.com 1.10,2013-01-14 04:08:00,
2013-01-13 23:23:00,73.1,64.0,30.13,NNE,33,0.0,5.0,74,0.00,,,0.00,weatherlink.com 1.10,2013-01-14 04:23:00,
2013-01-13 23:38:00,73.0,63.0,30.14,NE,56,2.0,5.0,72,0.00,,,0.00,weatherlink.com 1.10,2013-01-14 04:38:00,
2013-01-13 23:53:00,73.1,64.0,30.14,NNE,26,2.0,4.0,73,0.00,,,0.00,weatherlink.com 1.10,2013-01-14 04:53:00,